sensor_id;sensor_type;location;lat;lon;timestamp;pressure;altitude;pressure_sealevel;temperature;humidity
804;BME280;25687;49.976;8.240;2023-06-22T00:00:50;100143.19;;;23.21;100.00
804;BME280;25687;49.976;8.240;2023-06-22T00:03:20;100148.59;;;23.28;100.00
804;BME280;25687;49.976;8.240;2023-06-22T00:05:49;100172.22;;;23.36;100.00
804;BME280;25687;49.976;8.240;2023-06-22T00:08:14;100178.44;;;23.35;100.00
804;BME280;25687;49.976;8.240;2023-06-22T00:10:40;100186.31;;;23.27;100.00
804;BME280;25687;49.976;8.240;2023-06-22T00:13:06;100193.19;;;23.28;100.00
804;BME280;25687;49.976;8.240;2023-06-22T00:15:33;100197.31;;;23.30;100.00
804;BME280;25687;49.976;8.240;2023-06-22T00:17:58;100209.28;;;23.33;100.00
804;BME280;25687;49.976;8.240;2023-06-22T00:20:25;100201.25;;;23.34;100.00
804;BME280;25687;49.976;8.240;2023-06-22T00:22:57;100199.59;;;23.33;100.00
804;BME280;25687;49.976;8.240;2023-06-22T00:25:22;100206.16;;;23.37;100.00
804;BME280;25687;49.976;8.240;2023-06-22T00:27:48;100197.63;;;23.19;100.00
804;BME280;25687;49.976;8.240;2023-06-22T00:30:15;100196.94;;;23.09;100.00
804;BME280;25687;49.976;8.240;2023-06-22T00:32:41;100200.38;;;22.93;100.00
804;BME280;25687;49.976;8.240;2023-06-22T00:35:07;100208.56;;;22.98;100.00
804;BME280;25687;49.976;8.240;2023-06-22T00:37:32;100205.47;;;23.02;100.00
804;BME280;25687;49.976;8.240;2023-06-22T00:39:57;100212.03;;;23.15;100.00
804;BME280;25687;49.976;8.240;2023-06-22T00:42:23;100213.31;;;23.11;100.00
804;BME280;25687;49.976;8.240;2023-06-22T00:44:48;100234.19;;;23.12;100.00
804;BME280;25687;49.976;8.240;2023-06-22T00:47:16;100251.53;;;23.05;100.00
804;BME280;25687;49.976;8.240;2023-06-22T00:49:42;100267.41;;;22.87;100.00
804;BME280;25687;49.976;8.240;2023-06-22T00:52:08;100287.22;;;22.81;100.00
804;BME280;25687;49.976;8.240;2023-06-22T00:54:40;100310.97;;;22.71;100.00
804;BME280;25687;49.976;8.240;2023-06-22T00:57:11;100330.03;;;22.03;100.00
804;BME280;25687;49.976;8.240;2023-06-22T00:59:37;100339.84;;;21.83;100.00
804;BME280;25687;49.976;8.240;2023-06-22T01:02:02;100335.88;;;21.42;100.00
804;BME280;25687;49.976;8.240;2023-06-22T01:04:34;100305.59;;;21.04;100.00
804;BME280;25687;49.976;8.240;2023-06-22T01:07:21;100225.44;;;20.85;100.00
804;BME280;25687;49.976;8.240;2023-06-22T01:12:30;100170.88;;;20.54;100.00
804;BME280;25687;49.976;8.240;2023-06-22T01:15:02;100164.88;;;20.15;100.00
804;BME280;25687;49.976;8.240;2023-06-22T01:17:30;100151.94;;;19.96;100.00
804;BME280;25687;49.976;8.240;2023-06-22T01:19:57;100141.91;;;19.91;100.00
804;BME280;25687;49.976;8.240;2023-06-22T01:22:29;100139.47;;;19.70;100.00
804;BME280;25687;49.976;8.240;2023-06-22T01:30:56;100178.69;;;19.98;100.00
804;BME280;25687;49.976;8.240;2023-06-22T01:33:35;100203.41;;;20.04;100.00
804;BME280;25687;49.976;8.240;2023-06-22T01:36:02;100233.34;;;20.09;100.00
804;BME280;25687;49.976;8.240;2023-06-22T01:38:29;100234.63;;;19.95;100.00
804;BME280;25687;49.976;8.240;2023-06-22T01:40:57;100229.25;;;19.97;100.00
804;BME280;25687;49.976;8.240;2023-06-22T01:43:24;100228.44;;;19.96;100.00
804;BME280;25687;49.976;8.240;2023-06-22T01:45:51;100213.22;;;19.72;100.00
804;BME280;25687;49.976;8.240;2023-06-22T01:48:17;100181.50;;;19.67;100.00
804;BME280;25687;49.976;8.240;2023-06-22T01:50:43;100185.50;;;19.71;100.00
804;BME280;25687;49.976;8.240;2023-06-22T01:53:08;100184.94;;;19.67;100.00
804;BME280;25687;49.976;8.240;2023-06-22T01:55:33;100185.47;;;19.81;100.00
804;BME280;25687;49.976;8.240;2023-06-22T01:57:59;100200.03;;;19.93;100.00
804;BME280;25687;49.976;8.240;2023-06-22T02:00:25;100198.38;;;19.92;100.00
804;BME280;25687;49.976;8.240;2023-06-22T02:03:03;100190.94;;;19.78;100.00
804;BME280;25687;49.976;8.240;2023-06-22T02:05:49;100182.47;;;19.66;100.00
804;BME280;25687;49.976;8.240;2023-06-22T02:08:21;100173.56;;;19.59;100.00
804;BME280;25687;49.976;8.240;2023-06-22T02:10:48;100165.97;;;19.75;100.00
804;BME280;25687;49.976;8.240;2023-06-22T02:13:15;100171.34;;;19.83;100.00
804;BME280;25687;49.976;8.240;2023-06-22T02:15:41;100188.88;;;19.81;100.00
804;BME280;25687;49.976;8.240;2023-06-22T02:18:07;100191.09;;;19.86;100.00
804;BME280;25687;49.976;8.240;2023-06-22T02:20:32;100193.97;;;19.93;100.00
804;BME280;25687;49.976;8.240;2023-06-22T02:22:57;100199.97;;;20.03;100.00
804;BME280;25687;49.976;8.240;2023-06-22T02:25:23;100208.38;;;19.97;100.00
804;BME280;25687;49.976;8.240;2023-06-22T02:27:48;100196.13;;;20.07;100.00
804;BME280;25687;49.976;8.240;2023-06-22T02:30:14;100209.41;;;20.14;100.00
804;BME280;25687;49.976;8.240;2023-06-22T02:32:41;100208.59;;;20.13;100.00
804;BME280;25687;49.976;8.240;2023-06-22T02:35:10;100195.00;;;20.10;100.00
804;BME280;25687;49.976;8.240;2023-06-22T02:37:36;100179.53;;;19.98;100.00
804;BME280;25687;49.976;8.240;2023-06-22T02:40:07;100167.13;;;20.00;100.00
804;BME280;25687;49.976;8.240;2023-06-22T02:42:34;100158.34;;;20.02;100.00
804;BME280;25687;49.976;8.240;2023-06-22T02:44:59;100142.72;;;19.82;100.00
804;BME280;25687;49.976;8.240;2023-06-22T02:47:25;100136.84;;;19.90;100.00
804;BME280;25687;49.976;8.240;2023-06-22T02:49:51;100136.84;;;19.90;100.00
804;BME280;25687;49.976;8.240;2023-06-22T02:52:16;100136.38;;;19.94;100.00
804;BME280;25687;49.976;8.240;2023-06-22T02:54:41;100138.94;;;20.04;100.00
804;BME280;25687;49.976;8.240;2023-06-22T02:57:07;100140.03;;;20.11;100.00
804;BME280;25687;49.976;8.240;2023-06-22T02:59:39;100142.38;;;20.14;100.00
804;BME280;25687;49.976;8.240;2023-06-22T03:02:07;100131.13;;;20.04;100.00
804;BME280;25687;49.976;8.240;2023-06-22T03:04:32;100125.69;;;20.15;100.00
804;BME280;25687;49.976;8.240;2023-06-22T03:06:57;100115.94;;;20.18;100.00
804;BME280;25687;49.976;8.240;2023-06-22T03:09:29;100109.44;;;20.22;100.00
804;BME280;25687;49.976;8.240;2023-06-22T03:11:54;100116.91;;;20.16;100.00
804;BME280;25687;49.976;8.240;2023-06-22T03:14:20;100116.91;;;20.16;100.00
804;BME280;25687;49.976;8.240;2023-06-22T03:16:45;100123.63;;;20.19;100.00
804;BME280;25687;49.976;8.240;2023-06-22T03:19:10;100126.22;;;20.19;100.00
804;BME280;25687;49.976;8.240;2023-06-22T03:21:37;100118.13;;;20.22;100.00
804;BME280;25687;49.976;8.240;2023-06-22T03:24:04;100122.59;;;20.30;100.00
804;BME280;25687;49.976;8.240;2023-06-22T03:26:29;100121.22;;;20.36;100.00
804;BME280;25687;49.976;8.240;2023-06-22T03:28:55;100119.50;;;20.44;100.00
804;BME280;25687;49.976;8.240;2023-06-22T03:31:20;100124.78;;;20.35;100.00
804;BME280;25687;49.976;8.240;2023-06-22T03:33:47;100119.78;;;20.41;100.00
804;BME280;25687;49.976;8.240;2023-06-22T03:36:13;100118.38;;;20.47;100.00
804;BME280;25687;49.976;8.240;2023-06-22T03:38:38;100113.53;;;20.52;100.00
804;BME280;25687;49.976;8.240;2023-06-22T03:41:04;100109.81;;;20.55;100.00
804;BME280;25687;49.976;8.240;2023-06-22T03:43:29;100121.75;;;20.57;100.00
804;BME280;25687;49.976;8.240;2023-06-22T03:45:54;100115.84;;;20.55;100.00
804;BME280;25687;49.976;8.240;2023-06-22T03:48:19;100115.94;;;20.63;100.00
804;BME280;25687;49.976;8.240;2023-06-22T03:50:45;100106.53;;;20.71;100.00
804;BME280;25687;49.976;8.240;2023-06-22T03:53:10;100106.13;;;20.75;100.00
804;BME280;25687;49.976;8.240;2023-06-22T03:55:36;100115.88;;;20.73;100.00
804;BME280;25687;49.976;8.240;2023-06-22T03:58:01;100116.25;;;20.60;100.00
804;BME280;25687;49.976;8.240;2023-06-22T04:00:31;100120.16;;;20.74;100.00
804;BME280;25687;49.976;8.240;2023-06-22T04:02:57;100124.28;;;20.67;100.00
804;BME280;25687;49.976;8.240;2023-06-22T04:05:22;100114.53;;;20.69;100.00
804;BME280;25687;49.976;8.240;2023-06-22T04:07:47;100122.16;;;20.80;100.00
804;BME280;25687;49.976;8.240;2023-06-22T04:10:12;100121.03;;;20.83;100.00
804;BME280;25687;49.976;8.240;2023-06-22T04:12:38;100115.22;;;20.89;100.00
804;BME280;25687;49.976;8.240;2023-06-22T04:15:03;100116.84;;;20.72;100.00
804;BME280;25687;49.976;8.240;2023-06-22T04:17:28;100121.31;;;20.80;100.00
804;BME280;25687;49.976;8.240;2023-06-22T04:19:54;100117.53;;;20.74;100.00
804;BME280;25687;49.976;8.240;2023-06-22T04:22:19;100117.41;;;20.66;100.00
804;BME280;25687;49.976;8.240;2023-06-22T04:24:44;100119.03;;;20.77;100.00
804;BME280;25687;49.976;8.240;2023-06-22T04:27:10;100129.00;;;20.63;100.00
804;BME280;25687;49.976;8.240;2023-06-22T04:29:35;100137.31;;;20.77;100.00
804;BME280;25687;49.976;8.240;2023-06-22T04:32:01;100130.09;;;20.89;100.00
804;BME280;25687;49.976;8.240;2023-06-22T04:34:31;100123.50;;;20.85;100.00
804;BME280;25687;49.976;8.240;2023-06-22T04:36:57;100121.03;;;21.01;100.00
804;BME280;25687;49.976;8.240;2023-06-22T04:39:23;100127.97;;;20.92;100.00
804;BME280;25687;49.976;8.240;2023-06-22T04:41:49;100125.94;;;20.86;100.00
804;BME280;25687;49.976;8.240;2023-06-22T04:44:17;100118.88;;;20.96;100.00
804;BME280;25687;49.976;8.240;2023-06-22T04:46:56;100123.94;;;21.16;100.00
804;BME280;25687;49.976;8.240;2023-06-22T04:49:27;100119.41;;;21.00;100.00
804;BME280;25687;49.976;8.240;2023-06-22T04:51:59;100121.25;;;20.90;100.00
804;BME280;25687;49.976;8.240;2023-06-22T04:54:25;100113.03;;;20.85;100.00
804;BME280;25687;49.976;8.240;2023-06-22T04:56:51;100113.19;;;21.01;100.00
804;BME280;25687;49.976;8.240;2023-06-22T04:59:26;100112.69;;;20.98;100.00
804;BME280;25687;49.976;8.240;2023-06-22T05:01:56;100110.28;;;20.86;100.00
804;BME280;25687;49.976;8.240;2023-06-22T05:04:23;100107.38;;;20.89;100.00
804;BME280;25687;49.976;8.240;2023-06-22T05:06:50;100112.69;;;20.98;100.00
804;BME280;25687;49.976;8.240;2023-06-22T05:09:15;100121.75;;;21.11;100.00
804;BME280;25687;49.976;8.240;2023-06-22T05:11:42;100116.34;;;21.31;100.00
804;BME280;25687;49.976;8.240;2023-06-22T05:14:07;100117.13;;;21.76;100.00
804;BME280;25687;49.976;8.240;2023-06-22T05:16:32;100106.03;;;21.82;100.00
804;BME280;25687;49.976;8.240;2023-06-22T05:18:58;100103.00;;;22.03;100.00
804;BME280;25687;49.976;8.240;2023-06-22T05:21:24;100096.22;;;22.35;100.00
804;BME280;25687;49.976;8.240;2023-06-22T05:23:51;100094.78;;;22.49;100.00
804;BME280;25687;49.976;8.240;2023-06-22T05:26:16;100091.03;;;22.60;100.00
804;BME280;25687;49.976;8.240;2023-06-22T05:28:42;100095.78;;;22.65;100.00
804;BME280;25687;49.976;8.240;2023-06-22T05:31:11;100088.44;;;22.85;100.00
804;BME280;25687;49.976;8.240;2023-06-22T05:33:36;100084.97;;;23.01;100.00
804;BME280;25687;49.976;8.240;2023-06-22T05:36:01;100089.59;;;22.82;100.00
804;BME280;25687;49.976;8.240;2023-06-22T05:38:26;100081.69;;;23.07;100.00
804;BME280;25687;49.976;8.240;2023-06-22T05:40:52;100087.13;;;22.97;100.00
804;BME280;25687;49.976;8.240;2023-06-22T05:43:17;100091.03;;;22.93;100.00
804;BME280;25687;49.976;8.240;2023-06-22T05:45:43;100091.19;;;23.08;100.00
804;BME280;25687;49.976;8.240;2023-06-22T05:48:08;100082.69;;;23.23;100.00
804;BME280;25687;49.976;8.240;2023-06-22T05:50:33;100085.91;;;23.49;100.00
804;BME280;25687;49.976;8.240;2023-06-22T05:52:58;100080.28;;;23.61;100.00
804;BME280;25687;49.976;8.240;2023-06-22T05:55:24;100088.97;;;23.61;100.00
804;BME280;25687;49.976;8.240;2023-06-22T05:57:49;100090.03;;;23.83;100.00
804;BME280;25687;49.976;8.240;2023-06-22T06:00:14;100088.13;;;24.40;100.00
804;BME280;25687;49.976;8.240;2023-06-22T06:02:40;100091.50;;;24.49;100.00
804;BME280;25687;49.976;8.240;2023-06-22T06:05:10;100084.97;;;24.68;100.00
804;BME280;25687;49.976;8.240;2023-06-22T06:07:35;100082.25;;;25.00;100.00
804;BME280;25687;49.976;8.240;2023-06-22T06:10:02;100082.31;;;25.59;100.00
804;BME280;25687;49.976;8.240;2023-06-22T06:12:29;100081.84;;;25.86;100.00
804;BME280;25687;49.976;8.240;2023-06-22T06:14:55;100096.94;;;26.50;100.00
804;BME280;25687;49.976;8.240;2023-06-22T06:17:21;100098.00;;;26.99;100.00
804;BME280;25687;49.976;8.240;2023-06-22T06:19:46;100094.28;;;27.50;100.00
804;BME280;25687;49.976;8.240;2023-06-22T06:22:12;100093.50;;;27.57;100.00
804;BME280;25687;49.976;8.240;2023-06-22T06:24:37;100100.97;;;26.89;100.00
804;BME280;25687;49.976;8.240;2023-06-22T06:27:02;100094.94;;;26.74;100.00
804;BME280;25687;49.976;8.240;2023-06-22T06:29:30;100099.78;;;26.49;100.00
804;BME280;25687;49.976;8.240;2023-06-22T06:31:55;100096.00;;;26.58;100.00
804;BME280;25687;49.976;8.240;2023-06-22T06:34:21;100094.19;;;26.58;100.00
804;BME280;25687;49.976;8.240;2023-06-22T06:36:47;100084.75;;;26.28;100.00
804;BME280;25687;49.976;8.240;2023-06-22T06:39:12;100084.38;;;26.31;100.00
804;BME280;25687;49.976;8.240;2023-06-22T06:41:37;100083.53;;;26.95;100.00
804;BME280;25687;49.976;8.240;2023-06-22T06:44:03;100069.88;;;26.85;100.00
804;BME280;25687;49.976;8.240;2023-06-22T06:46:28;100071.25;;;26.59;100.00
804;BME280;25687;49.976;8.240;2023-06-22T06:48:53;100079.72;;;26.54;100.00
804;BME280;25687;49.976;8.240;2023-06-22T06:51:18;100077.78;;;26.85;100.00
804;BME280;25687;49.976;8.240;2023-06-22T06:53:44;100069.53;;;27.23;100.00
804;BME280;25687;49.976;8.240;2023-06-22T06:56:09;100076.63;;;27.22;100.00
804;BME280;25687;49.976;8.240;2023-06-22T06:58:35;100077.78;;;27.42;100.00
804;BME280;25687;49.976;8.240;2023-06-22T07:01:01;100070.19;;;28.42;100.00
804;BME280;25687;49.976;8.240;2023-06-22T07:03:27;100068.63;;;28.68;100.00
804;BME280;25687;49.976;8.240;2023-06-22T07:05:52;100068.25;;;29.63;94.75
804;BME280;25687;49.976;8.240;2023-06-22T07:08:18;100062.41;;;29.41;96.10
804;BME280;25687;49.976;8.240;2023-06-22T07:10:43;100065.66;;;29.95;90.84
804;BME280;25687;49.976;8.240;2023-06-22T07:13:08;100074.09;;;30.18;89.88
804;BME280;25687;49.976;8.240;2023-06-22T07:15:34;100072.97;;;30.00;90.61
804;BME280;25687;49.976;8.240;2023-06-22T07:17:59;100074.06;;;30.56;88.02
804;BME280;25687;49.976;8.240;2023-06-22T07:20:24;100056.94;;;31.21;84.18
804;BME280;25687;49.976;8.240;2023-06-22T07:22:51;100063.91;;;31.71;78.87
804;BME280;25687;49.976;8.240;2023-06-22T07:25:16;100064.16;;;32.00;80.85
804;BME280;25687;49.976;8.240;2023-06-22T07:27:59;100059.53;;;33.09;72.45
804;BME280;25687;49.976;8.240;2023-06-22T07:30:24;100053.53;;;31.14;81.71
804;BME280;25687;49.976;8.240;2023-06-22T07:32:50;100054.06;;;31.91;79.16
804;BME280;25687;49.976;8.240;2023-06-22T07:35:15;100061.25;;;31.53;81.86
804;BME280;25687;49.976;8.240;2023-06-22T07:37:41;100056.41;;;31.13;83.50
804;BME280;25687;49.976;8.240;2023-06-22T07:40:07;100044.91;;;29.79;90.13
804;BME280;25687;49.976;8.240;2023-06-22T07:42:33;100044.34;;;29.11;94.84
804;BME280;25687;49.976;8.240;2023-06-22T07:44:58;100042.47;;;29.77;93.06
804;BME280;25687;49.976;8.240;2023-06-22T07:47:23;100040.06;;;30.08;91.21
804;BME280;25687;49.976;8.240;2023-06-22T07:49:53;100047.19;;;31.15;87.68
804;BME280;25687;49.976;8.240;2023-06-22T07:52:20;100036.16;;;31.49;80.73
804;BME280;25687;49.976;8.240;2023-06-22T07:54:46;100044.13;;;30.93;84.54
804;BME280;25687;49.976;8.240;2023-06-22T07:57:11;100037.97;;;31.85;80.22
804;BME280;25687;49.976;8.240;2023-06-22T07:59:36;100050.97;;;31.01;82.91
804;BME280;25687;49.976;8.240;2023-06-22T08:02:02;100044.03;;;30.81;86.04
804;BME280;25687;49.976;8.240;2023-06-22T08:04:28;100038.88;;;31.79;82.35
804;BME280;25687;49.976;8.240;2023-06-22T08:06:54;100048.44;;;31.31;83.42
804;BME280;25687;49.976;8.240;2023-06-22T08:09:19;100027.00;;;30.13;87.44
804;BME280;25687;49.976;8.240;2023-06-22T08:11:44;100021.78;;;30.32;88.17
804;BME280;25687;49.976;8.240;2023-06-22T08:14:10;100012.88;;;29.81;90.35
804;BME280;25687;49.976;8.240;2023-06-22T08:16:35;100021.25;;;30.41;88.37
804;BME280;25687;49.976;8.240;2023-06-22T08:19:00;100017.03;;;30.84;87.42
804;BME280;25687;49.976;8.240;2023-06-22T08:21:25;100011.59;;;31.35;83.89
804;BME280;25687;49.976;8.240;2023-06-22T08:23:51;100004.28;;;30.93;84.39
804;BME280;25687;49.976;8.240;2023-06-22T08:26:16;100003.78;;;30.34;88.08
804;BME280;25687;49.976;8.240;2023-06-22T08:28:41;99996.66;;;30.78;86.86
804;BME280;25687;49.976;8.240;2023-06-22T08:31:07;100010.69;;;30.85;86.22
804;BME280;25687;49.976;8.240;2023-06-22T08:33:33;100008.72;;;30.99;86.38
804;BME280;25687;49.976;8.240;2023-06-22T08:35:58;100013.16;;;31.24;84.29
804;BME280;25687;49.976;8.240;2023-06-22T08:38:25;100015.69;;;31.49;81.25
804;BME280;25687;49.976;8.240;2023-06-22T08:40:50;99995.88;;;31.82;80.16
804;BME280;25687;49.976;8.240;2023-06-22T08:43:15;99986.66;;;30.80;86.16
804;BME280;25687;49.976;8.240;2023-06-22T08:45:41;99977.78;;;30.49;88.91
804;BME280;25687;49.976;8.240;2023-06-22T08:48:06;99981.75;;;30.58;88.42
804;BME280;25687;49.976;8.240;2023-06-22T08:50:31;99974.78;;;31.01;85.04
804;BME280;25687;49.976;8.240;2023-06-22T08:52:56;99976.88;;;30.30;89.92
804;BME280;25687;49.976;8.240;2023-06-22T08:55:22;99975.22;;;29.33;96.13
804;BME280;25687;49.976;8.240;2023-06-22T08:57:47;99981.81;;;29.62;94.29
804;BME280;25687;49.976;8.240;2023-06-22T09:00:13;99982.84;;;28.96;99.63
804;BME280;25687;49.976;8.240;2023-06-22T09:02:46;99973.13;;;28.63;100.00
804;BME280;25687;49.976;8.240;2023-06-22T09:05:12;99984.41;;;30.33;93.32
804;BME280;25687;49.976;8.240;2023-06-22T09:07:37;99978.06;;;31.52;82.88
804;BME280;25687;49.976;8.240;2023-06-22T09:10:02;99970.66;;;32.39;78.86
804;BME280;25687;49.976;8.240;2023-06-22T09:12:31;99969.03;;;33.84;67.15
804;BME280;25687;49.976;8.240;2023-06-22T09:14:58;99966.13;;;33.86;68.44
804;BME280;25687;49.976;8.240;2023-06-22T09:17:25;99960.59;;;33.18;72.32
804;BME280;25687;49.976;8.240;2023-06-22T09:19:50;99950.97;;;32.76;75.75
804;BME280;25687;49.976;8.240;2023-06-22T09:22:16;99953.28;;;31.40;82.92
804;BME280;25687;49.976;8.240;2023-06-22T09:24:41;99949.25;;;31.19;86.62
804;BME280;25687;49.976;8.240;2023-06-22T09:27:06;99948.78;;;31.22;84.12
804;BME280;25687;49.976;8.240;2023-06-22T09:29:31;99935.03;;;31.74;82.12
804;BME280;25687;49.976;8.240;2023-06-22T09:32:00;99942.78;;;31.15;86.33
804;BME280;25687;49.976;8.240;2023-06-22T09:34:25;99940.44;;;32.33;78.91
804;BME280;25687;49.976;8.240;2023-06-22T09:36:51;99948.59;;;33.61;71.15
804;BME280;25687;49.976;8.240;2023-06-22T09:39:18;99949.56;;;32.61;75.77
804;BME280;25687;49.976;8.240;2023-06-22T09:41:43;99937.00;;;29.86;88.99
804;BME280;25687;49.976;8.240;2023-06-22T09:44:08;99925.72;;;28.28;100.00
804;BME280;25687;49.976;8.240;2023-06-22T09:46:33;99921.97;;;28.96;99.20
804;BME280;25687;49.976;8.240;2023-06-22T09:48:59;99930.44;;;29.89;91.78
804;BME280;25687;49.976;8.240;2023-06-22T09:51:24;99926.53;;;30.23;91.01
804;BME280;25687;49.976;8.240;2023-06-22T09:53:50;99923.50;;;30.82;89.36
804;BME280;25687;49.976;8.240;2023-06-22T09:56:15;99915.81;;;30.11;93.02
804;BME280;25687;49.976;8.240;2023-06-22T09:58:42;99914.75;;;29.87;94.19
804;BME280;25687;49.976;8.240;2023-06-22T10:01:07;99900.59;;;29.68;93.64
804;BME280;25687;49.976;8.240;2023-06-22T10:03:32;99901.31;;;30.14;90.24
804;BME280;25687;49.976;8.240;2023-06-22T10:05:58;99906.44;;;29.84;88.73
804;BME280;25687;49.976;8.240;2023-06-22T10:08:23;99901.03;;;30.22;89.39
804;BME280;25687;49.976;8.240;2023-06-22T10:10:48;99908.78;;;30.68;84.64
804;BME280;25687;49.976;8.240;2023-06-22T10:13:13;99895.88;;;31.09;83.40
804;BME280;25687;49.976;8.240;2023-06-22T10:15:40;99891.03;;;32.02;77.68
804;BME280;25687;49.976;8.240;2023-06-22T10:18:05;99873.59;;;31.52;79.42
804;BME280;25687;49.976;8.240;2023-06-22T10:20:30;99864.25;;;31.61;75.97
804;BME280;25687;49.976;8.240;2023-06-22T10:22:56;99863.03;;;31.76;75.79
804;BME280;25687;49.976;8.240;2023-06-22T10:25:21;99856.28;;;33.26;62.86
804;BME280;25687;49.976;8.240;2023-06-22T10:27:47;99862.31;;;33.67;61.75
804;BME280;25687;49.976;8.240;2023-06-22T10:30:12;99836.50;;;32.93;64.03
804;BME280;25687;49.976;8.240;2023-06-22T10:32:38;99839.09;;;32.76;65.09
804;BME280;25687;49.976;8.240;2023-06-22T10:35:05;99833.66;;;32.71;65.03
804;BME280;25687;49.976;8.240;2023-06-22T10:37:30;99829.44;;;31.63;75.13
804;BME280;25687;49.976;8.240;2023-06-22T10:39:55;99825.91;;;32.40;74.78
804;BME280;25687;49.976;8.240;2023-06-22T11:25:31;99769.97;;;31.10;76.91
804;BME280;25687;49.976;8.240;2023-06-22T11:27:56;99772.81;;;30.29;82.82
804;BME280;25687;49.976;8.240;2023-06-22T11:30:22;99765.47;;;30.31;81.34
804;BME280;25687;49.976;8.240;2023-06-22T11:32:48;99763.88;;;30.41;81.99
804;BME280;25687;49.976;8.240;2023-06-22T11:35:13;99769.00;;;30.43;83.04
804;BME280;25687;49.976;8.240;2023-06-22T11:37:38;99764.81;;;31.15;80.14
804;BME280;25687;49.976;8.240;2023-06-22T11:40:04;99762.63;;;31.23;80.02
804;BME280;25687;49.976;8.240;2023-06-22T11:42:30;99760.22;;;30.24;83.21
804;BME280;25687;49.976;8.240;2023-06-22T11:44:55;99757.28;;;30.51;84.41
804;BME280;25687;49.976;8.240;2023-06-22T11:47:21;99753.09;;;31.04;81.08
804;BME280;25687;49.976;8.240;2023-06-22T11:49:46;99749.13;;;31.49;77.52
804;BME280;25687;49.976;8.240;2023-06-22T11:52:11;99739.78;;;31.58;76.57
804;BME280;25687;49.976;8.240;2023-06-22T11:54:37;99741.63;;;31.81;78.26
804;BME280;25687;49.976;8.240;2023-06-22T11:57:03;99738.63;;;31.42;75.17
804;BME280;25687;49.976;8.240;2023-06-22T11:59:29;99737.44;;;31.26;77.01
804;BME280;25687;49.976;8.240;2023-06-22T12:15:20;99739.56;;;31.71;76.25
804;BME280;25687;49.976;8.240;2023-06-22T12:17:45;99728.41;;;32.22;76.82
804;BME280;25687;49.976;8.240;2023-06-22T12:20:11;99738.25;;;32.79;75.23
804;BME280;25687;49.976;8.240;2023-06-22T12:22:36;99727.94;;;32.13;75.29
804;BME280;25687;49.976;8.240;2023-06-22T12:25:03;99732.78;;;32.16;72.52
804;BME280;25687;49.976;8.240;2023-06-22T12:27:28;99722.97;;;32.05;73.51
804;BME280;25687;49.976;8.240;2023-06-22T12:43:22;99707.88;;;32.34;77.02
804;BME280;25687;49.976;8.240;2023-06-22T12:45:47;99701.78;;;32.97;72.15
804;BME280;25687;49.976;8.240;2023-06-22T12:48:12;99689.06;;;32.70;70.22
804;BME280;25687;49.976;8.240;2023-06-22T12:50:38;99691.69;;;31.60;78.43
804;BME280;25687;49.976;8.240;2023-06-22T12:53:03;99686.72;;;31.87;78.05
804;BME280;25687;49.976;8.240;2023-06-22T12:55:31;99686.41;;;32.24;75.52
804;BME280;25687;49.976;8.240;2023-06-22T12:57:56;99684.53;;;32.25;76.76
804;BME280;25687;49.976;8.240;2023-06-22T13:00:21;99681.50;;;32.33;77.89
804;BME280;25687;49.976;8.240;2023-06-22T13:02:47;99682.22;;;32.28;75.65
804;BME280;25687;49.976;8.240;2023-06-22T13:05:12;99675.41;;;32.09;75.74
804;BME280;25687;49.976;8.240;2023-06-22T13:07:37;99664.78;;;32.21;73.40
804;BME280;25687;49.976;8.240;2023-06-22T13:10:03;99662.50;;;32.87;71.86
804;BME280;25687;49.976;8.240;2023-06-22T13:12:28;99656.28;;;32.98;69.33
804;BME280;25687;49.976;8.240;2023-06-22T13:14:54;99653.44;;;33.39;66.16
804;BME280;25687;49.976;8.240;2023-06-22T13:17:19;99647.53;;;33.03;69.60
804;BME280;25687;49.976;8.240;2023-06-22T13:19:44;99643.44;;;32.95;68.07
804;BME280;25687;49.976;8.240;2023-06-22T13:22:33;99650.50;;;32.73;71.56
804;BME280;25687;49.976;8.240;2023-06-22T13:25:05;99644.22;;;33.13;71.03
804;BME280;25687;49.976;8.240;2023-06-22T13:27:30;99643.84;;;32.87;69.09
804;BME280;25687;49.976;8.240;2023-06-22T13:29:56;99641.97;;;33.05;69.50
804;BME280;25687;49.976;8.240;2023-06-22T13:32:21;99643.56;;;33.06;70.06
804;BME280;25687;49.976;8.240;2023-06-22T13:34:46;99650.75;;;32.71;72.58
804;BME280;25687;49.976;8.240;2023-06-22T13:37:11;99636.69;;;32.42;74.01
804;BME280;25687;49.976;8.240;2023-06-22T13:39:37;99624.69;;;32.73;72.21
804;BME280;25687;49.976;8.240;2023-06-22T13:42:02;99613.22;;;32.73;71.84
804;BME280;25687;49.976;8.240;2023-06-22T13:44:27;99600.53;;;32.46;71.33
804;BME280;25687;49.976;8.240;2023-06-22T13:46:54;99600.63;;;32.51;72.37
804;BME280;25687;49.976;8.240;2023-06-22T13:49:20;99598.97;;;32.96;65.03
804;BME280;25687;49.976;8.240;2023-06-22T13:51:45;99595.41;;;32.90;54.19
804;BME280;25687;49.976;8.240;2023-06-22T13:54:10;99576.78;;;32.56;53.42
804;BME280;25687;49.976;8.240;2023-06-22T13:56:35;99571.66;;;32.55;55.99
804;BME280;25687;49.976;8.240;2023-06-22T13:59:01;99567.88;;;32.50;53.30
804;BME280;25687;49.976;8.240;2023-06-22T14:01:26;99561.53;;;32.69;55.98
804;BME280;25687;49.976;8.240;2023-06-22T14:03:51;99553.38;;;32.75;55.54
804;BME280;25687;49.976;8.240;2023-06-22T14:06:16;99536.91;;;32.27;56.17
804;BME280;25687;49.976;8.240;2023-06-22T14:08:42;99535.81;;;31.94;57.81
804;BME280;25687;49.976;8.240;2023-06-22T14:11:07;99526.94;;;32.06;61.18
804;BME280;25687;49.976;8.240;2023-06-22T14:13:32;99533.59;;;31.91;61.87
804;BME280;25687;49.976;8.240;2023-06-22T14:15:57;99532.03;;;31.37;64.39
804;BME280;25687;49.976;8.240;2023-06-22T14:18:23;99516.19;;;31.54;63.43
804;BME280;25687;49.976;8.240;2023-06-22T14:20:48;99509.69;;;31.50;65.39
804;BME280;25687;49.976;8.240;2023-06-22T14:23:14;99520.06;;;31.93;63.99